sensor_id;sensor_type;location;lat;lon;timestamp;pressure;altitude;pressure_sealevel;temperature;humidity
47716;BME280;33476;50.984;3.538;2023-01-16T00:00:57;99634.63;;;7.59;67.76
47716;BME280;33476;50.984;3.538;2023-01-16T00:03:23;99623.31;;;7.60;67.21
47716;BME280;33476;50.984;3.538;2023-01-16T00:05:49;99621.66;;;7.59;67.39
47716;BME280;33476;50.984;3.538;2023-01-16T00:08:14;99613.69;;;7.63;67.36
47716;BME280;33476;50.984;3.538;2023-01-16T00:10:40;99604.97;;;7.64;67.07
47716;BME280;33476;50.984;3.538;2023-01-16T00:13:06;99603.31;;;7.63;66.96
47716;BME280;33476;50.984;3.538;2023-01-16T00:15:31;99587.03;;;7.59;66.91
47716;BME280;33476;50.984;3.538;2023-01-16T00:17:57;99585.53;;;7.55;66.83
47716;BME280;33476;50.984;3.538;2023-01-16T00:20:22;99571.72;;;7.54;66.67
47716;BME280;33476;50.984;3.538;2023-01-16T00:22:48;99570.94;;;7.52;67.13
47716;BME280;33476;50.984;3.538;2023-01-16T00:25:13;99569.16;;;7.53;66.45
47716;BME280;33476;50.984;3.538;2023-01-16T00:27:39;99552.84;;;7.51;67.10
47716;BME280;33476;50.984;3.538;2023-01-16T00:30:05;99544.47;;;7.46;66.69
47716;BME280;33476;50.984;3.538;2023-01-16T00:32:31;99545.88;;;7.51;67.34
47716;BME280;33476;50.984;3.538;2023-01-16T00:34:57;99537.00;;;7.55;66.96
47716;BME280;33476;50.984;3.538;2023-01-16T00:37:22;99526.53;;;7.57;66.29
47716;BME280;33476;50.984;3.538;2023-01-16T00:39:50;99514.78;;;7.50;66.74
47716;BME280;33476;50.984;3.538;2023-01-16T00:42:17;99508.84;;;7.48;66.95
47716;BME280;33476;50.984;3.538;2023-01-16T00:44:43;99506.50;;;7.43;66.52
47716;BME280;33476;50.984;3.538;2023-01-16T00:47:11;99486.91;;;7.38;66.92
47716;BME280;33476;50.984;3.538;2023-01-16T00:49:37;99481.13;;;7.32;66.79
47716;BME280;33476;50.984;3.538;2023-01-16T00:52:03;99477.59;;;7.33;67.24
47716;BME280;33476;50.984;3.538;2023-01-16T00:54:28;99461.94;;;7.35;67.05
47716;BME280;33476;50.984;3.538;2023-01-16T00:56:53;99444.97;;;7.29;66.93
47716;BME280;33476;50.984;3.538;2023-01-16T00:59:19;99433.78;;;7.27;67.26
47716;BME280;33476;50.984;3.538;2023-01-16T01:01:44;99432.97;;;7.27;67.37
47716;BME280;33476;50.984;3.538;2023-01-16T01:04:09;99422.56;;;7.27;67.50
47716;BME280;33476;50.984;3.538;2023-01-16T01:06:37;99419.72;;;7.31;67.27
47716;BME280;33476;50.984;3.538;2023-01-16T01:09:02;99405.81;;;7.32;66.87
47716;BME280;33476;50.984;3.538;2023-01-16T01:11:27;99410.00;;;7.35;67.05
47716;BME280;33476;50.984;3.538;2023-01-16T01:13:53;99384.19;;;7.32;67.28
47716;BME280;33476;50.984;3.538;2023-01-16T01:16:18;99377.44;;;7.29;66.74
47716;BME280;33476;50.984;3.538;2023-01-16T01:18:43;99364.44;;;7.29;67.07
47716;BME280;33476;50.984;3.538;2023-01-16T01:21:09;99356.81;;;7.26;66.88
47716;BME280;33476;50.984;3.538;2023-01-16T01:23:35;99355.00;;;7.28;67.13
47716;BME280;33476;50.984;3.538;2023-01-16T01:26:08;99340.31;;;7.27;67.00
47716;BME280;33476;50.984;3.538;2023-01-16T01:28:34;99337.66;;;7.29;66.81
47716;BME280;33476;50.984;3.538;2023-01-16T01:31:07;99331.63;;;7.28;67.47
47716;BME280;33476;50.984;3.538;2023-01-16T01:33:33;99324.47;;;7.32;66.99
47716;BME280;33476;50.984;3.538;2023-01-16T01:35:59;99318.53;;;7.30;67.15
47716;BME280;33476;50.984;3.538;2023-01-16T01:38:24;99304.72;;;7.29;67.61
47716;BME280;33476;50.984;3.538;2023-01-16T01:40:49;99293.66;;;7.26;67.30
47716;BME280;33476;50.984;3.538;2023-01-16T01:43:15;99284.94;;;7.27;67.57
47716;BME280;33476;50.984;3.538;2023-01-16T01:45:45;99271.03;;;7.28;67.43
47716;BME280;33476;50.984;3.538;2023-01-16T01:50:55;99250.19;;;7.29;68.12
47716;BME280;33476;50.984;3.538;2023-01-16T01:53:33;99233.56;;;7.32;67.48
47716;BME280;33476;50.984;3.538;2023-01-16T01:56:06;99226.72;;;7.31;68.00
47716;BME280;33476;50.984;3.538;2023-01-16T01:58:33;99216.84;;;7.36;67.25
47716;BME280;33476;50.984;3.538;2023-01-16T02:00:59;99214.94;;;7.40;67.53
47716;BME280;33476;50.984;3.538;2023-01-16T02:03:34;99209.72;;;7.40;67.75
47716;BME280;33476;50.984;3.538;2023-01-16T02:06:05;99207.97;;;7.40;67.68
47716;BME280;33476;50.984;3.538;2023-01-16T02:08:34;99199.97;;;7.43;67.75
47716;BME280;33476;50.984;3.538;2023-01-16T02:11:09;99194.78;;;7.43;67.83
47716;BME280;33476;50.984;3.538;2023-01-16T02:13:52;99183.19;;;7.49;68.10
47716;BME280;33476;50.984;3.538;2023-01-16T02:16:18;99170.47;;;7.44;68.58
47716;BME280;33476;50.984;3.538;2023-01-16T02:19:03;99161.59;;;7.48;68.41
47716;BME280;33476;50.984;3.538;2023-01-16T02:32:37;99097.72;;;7.58;68.18
47716;BME280;33476;50.984;3.538;2023-01-16T02:35:21;99095.69;;;7.64;68.35
47716;BME280;33476;50.984;3.538;2023-01-16T02:37:59;99080.09;;;7.64;69.09
47716;BME280;33476;50.984;3.538;2023-01-16T02:43:42;99054.63;;;7.69;68.92
47716;BME280;33476;50.984;3.538;2023-01-16T02:46:18;99041.34;;;7.73;68.64
47716;BME280;33476;50.984;3.538;2023-01-16T02:55:00;99021.88;;;7.66;69.51
47716;BME280;33476;50.984;3.538;2023-01-16T02:57:27;98998.72;;;7.76;69.63
47716;BME280;33476;50.984;3.538;2023-01-16T02:59:55;98987.22;;;7.80;69.15
47716;BME280;33476;50.984;3.538;2023-01-16T03:02:21;98976.81;;;7.80;69.38
47716;BME280;33476;50.984;3.538;2023-01-16T03:04:48;98961.94;;;7.82;69.49
47716;BME280;33476;50.984;3.538;2023-01-16T03:10:44;98932.22;;;7.86;70.02
47716;BME280;33476;50.984;3.538;2023-01-16T03:13:22;98916.84;;;7.83;70.14
47716;BME280;33476;50.984;3.538;2023-01-16T03:18:57;98886.47;;;7.83;69.93
47716;BME280;33476;50.984;3.538;2023-01-16T03:26:46;98852.28;;;7.77;70.96
47716;BME280;33476;50.984;3.538;2023-01-16T03:29:38;98833.06;;;7.79;71.15
47716;BME280;33476;50.984;3.538;2023-01-16T03:32:12;98826.69;;;7.83;70.96
47716;BME280;33476;50.984;3.538;2023-01-16T03:34:50;98799.28;;;7.79;71.24
47716;BME280;33476;50.984;3.538;2023-01-16T03:37:22;98791.47;;;7.79;71.41
47716;BME280;33476;50.984;3.538;2023-01-16T03:40:00;98791.47;;;7.79;71.45
47716;BME280;33476;50.984;3.538;2023-01-16T03:42:33;98767.69;;;7.73;71.61
47716;BME280;33476;50.984;3.538;2023-01-16T03:45:05;98756.94;;;7.77;71.86
47716;BME280;33476;50.984;3.538;2023-01-16T03:47:34;98748.03;;;7.81;72.26
47716;BME280;33476;50.984;3.538;2023-01-16T03:50:05;98735.13;;;7.80;71.62
47716;BME280;33476;50.984;3.538;2023-01-16T03:52:44;98725.56;;;7.80;71.50
47716;BME280;33476;50.984;3.538;2023-01-16T03:57:57;98699.19;;;7.74;72.57
47716;BME280;33476;50.984;3.538;2023-01-16T04:00:27;98669.88;;;7.72;72.42
47716;BME280;33476;50.984;3.538;2023-01-16T04:03:00;98653.66;;;7.68;73.10
47716;BME280;33476;50.984;3.538;2023-01-16T04:05:33;98640.19;;;7.63;73.49
47716;BME280;33476;50.984;3.538;2023-01-16T04:08:05;98625.41;;;7.64;73.32
47716;BME280;33476;50.984;3.538;2023-01-16T04:10:35;98617.50;;;7.65;73.58
47716;BME280;33476;50.984;3.538;2023-01-16T04:13:06;98615.97;;;7.63;73.26
47716;BME280;33476;50.984;3.538;2023-01-16T04:15:35;98589.75;;;7.66;73.38
47716;BME280;33476;50.984;3.538;2023-01-16T04:18:03;98573.84;;;7.70;73.46
47716;BME280;33476;50.984;3.538;2023-01-16T04:20:29;98574.44;;;7.74;73.27
47716;BME280;33476;50.984;3.538;2023-01-16T04:22:56;98543.78;;;7.79;73.79
47716;BME280;33476;50.984;3.538;2023-01-16T04:25:22;98541.25;;;7.77;73.64
47716;BME280;33476;50.984;3.538;2023-01-16T04:27:47;98524.13;;;7.75;73.50
47716;BME280;33476;50.984;3.538;2023-01-16T04:30:13;98517.53;;;7.71;74.26
47716;BME280;33476;50.984;3.538;2023-01-16T04:32:40;98508.06;;;7.70;74.40
47716;BME280;33476;50.984;3.538;2023-01-16T04:35:06;98493.50;;;7.67;74.18
47716;BME280;33476;50.984;3.538;2023-01-16T04:37:31;98483.47;;;7.63;74.28
47716;BME280;33476;50.984;3.538;2023-01-16T04:39:58;98470.38;;;7.64;75.01
47716;BME280;33476;50.984;3.538;2023-01-16T04:42:24;98453.13;;;7.63;74.94
47716;BME280;33476;50.984;3.538;2023-01-16T04:44:49;98452.19;;;7.64;74.73
47716;BME280;33476;50.984;3.538;2023-01-16T04:47:14;98443.13;;;7.70;74.25
47716;BME280;33476;50.984;3.538;2023-01-16T04:49:40;98433.75;;;7.67;74.74
47716;BME280;33476;50.984;3.538;2023-01-16T04:52:05;98431.28;;;7.66;74.37
47716;BME280;33476;50.984;3.538;2023-01-16T04:54:31;98405.63;;;7.61;75.48
47716;BME280;33476;50.984;3.538;2023-01-16T04:56:56;98393.50;;;7.62;75.12
47716;BME280;33476;50.984;3.538;2023-01-16T04:59:22;98387.81;;;7.56;74.81
47716;BME280;33476;50.984;3.538;2023-01-16T05:01:47;98363.47;;;7.57;74.69
47716;BME280;33476;50.984;3.538;2023-01-16T05:04:14;98359.94;;;7.58;75.09
47716;BME280;33476;50.984;3.538;2023-01-16T05:06:39;98363.59;;;7.56;74.87
47716;BME280;33476;50.984;3.538;2023-01-16T05:09:05;98337.75;;;7.54;74.78
47716;BME280;33476;50.984;3.538;2023-01-16T05:11:31;98333.13;;;7.58;75.09
47716;BME280;33476;50.984;3.538;2023-01-16T05:13:57;98333.50;;;7.53;75.21
47716;BME280;33476;50.984;3.538;2023-01-16T05:16:23;98319.91;;;7.50;75.25
47716;BME280;33476;50.984;3.538;2023-01-16T05:18:49;98307.03;;;7.48;74.67
47716;BME280;33476;50.984;3.538;2023-01-16T05:21:14;98294.53;;;7.53;75.24
47716;BME280;33476;50.984;3.538;2023-01-16T05:23:40;98287.91;;;7.49;74.73
47716;BME280;33476;50.984;3.538;2023-01-16T05:26:05;98276.69;;;7.49;74.91
47716;BME280;33476;50.984;3.538;2023-01-16T05:28:32;98272.31;;;7.49;74.60
47716;BME280;33476;50.984;3.538;2023-01-16T05:30:58;98256.50;;;7.52;74.88
47716;BME280;33476;50.984;3.538;2023-01-16T05:33:23;98251.41;;;7.51;74.46
47716;BME280;33476;50.984;3.538;2023-01-16T05:35:49;98241.16;;;7.49;74.49
47716;BME280;33476;50.984;3.538;2023-01-16T05:38:16;98224.50;;;7.52;74.29
47716;BME280;33476;50.984;3.538;2023-01-16T05:40:43;98228.53;;;7.56;74.58
47716;BME280;33476;50.984;3.538;2023-01-16T05:43:09;98240.69;;;7.55;74.68
47716;BME280;33476;50.984;3.538;2023-01-16T05:45:34;98231.47;;;7.51;74.73
47716;BME280;33476;50.984;3.538;2023-01-16T05:47:59;98210.00;;;7.49;74.47
47716;BME280;33476;50.984;3.538;2023-01-16T05:50:25;98190.03;;;7.50;75.01
47716;BME280;33476;50.984;3.538;2023-01-16T05:52:50;98190.84;;;7.50;74.69
47716;BME280;33476;50.984;3.538;2023-01-16T05:55:16;98179.06;;;7.46;74.73
47716;BME280;33476;50.984;3.538;2023-01-16T05:57:41;98168.81;;;7.45;74.78
47716;BME280;33476;50.984;3.538;2023-01-16T06:00:07;98172.69;;;7.50;74.19
47716;BME280;33476;50.984;3.538;2023-01-16T06:02:33;98159.00;;;7.48;74.50
47716;BME280;33476;50.984;3.538;2023-01-16T06:04:59;98163.00;;;7.52;74.01
47716;BME280;33476;50.984;3.538;2023-01-16T06:07:24;98144.25;;;7.49;74.65
47716;BME280;33476;50.984;3.538;2023-01-16T06:09:49;98134.94;;;7.46;74.47
47716;BME280;33476;50.984;3.538;2023-01-16T06:12:15;98127.25;;;7.45;74.10
47716;BME280;33476;50.984;3.538;2023-01-16T06:14:41;98129.38;;;7.40;74.54
47716;BME280;33476;50.984;3.538;2023-01-16T06:17:07;98126.66;;;7.41;74.42
47716;BME280;33476;50.984;3.538;2023-01-16T06:19:32;98117.78;;;7.44;74.51
47716;BME280;33476;50.984;3.538;2023-01-16T06:21:57;98124.66;;;7.45;73.62
47716;BME280;33476;50.984;3.538;2023-01-16T06:24:23;98099.13;;;7.50;73.82
47716;BME280;33476;50.984;3.538;2023-01-16T06:26:48;98092.78;;;7.54;73.61
47716;BME280;33476;50.984;3.538;2023-01-16T06:29:13;98091.81;;;7.55;73.22
47716;BME280;33476;50.984;3.538;2023-01-16T06:31:39;98079.66;;;7.44;73.36
47716;BME280;33476;50.984;3.538;2023-01-16T06:34:04;98082.84;;;7.48;73.60
47716;BME280;33476;50.984;3.538;2023-01-16T06:36:29;98079.56;;;7.46;73.59
47716;BME280;33476;50.984;3.538;2023-01-16T06:38:55;98076.97;;;7.46;73.40
47716;BME280;33476;50.984;3.538;2023-01-16T06:41:20;98088.88;;;7.48;73.04
47716;BME280;33476;50.984;3.538;2023-01-16T06:43:45;98071.78;;;7.46;72.78
47716;BME280;33476;50.984;3.538;2023-01-16T06:46:11;98071.66;;;7.36;73.35
47716;BME280;33476;50.984;3.538;2023-01-16T06:48:36;98057.84;;;7.36;73.11
47716;BME280;33476;50.984;3.538;2023-01-16T06:51:01;98060.09;;;7.40;73.03
47716;BME280;33476;50.984;3.538;2023-01-16T06:53:27;98063.16;;;7.45;73.01
47716;BME280;33476;50.984;3.538;2023-01-16T06:55:52;98049.09;;;7.48;72.75
47716;BME280;33476;50.984;3.538;2023-01-16T06:58:18;98049.09;;;7.48;73.12
47716;BME280;33476;50.984;3.538;2023-01-16T07:00:43;98046.03;;;7.54;73.06
47716;BME280;33476;50.984;3.538;2023-01-16T07:03:10;98037.84;;;7.58;72.12
47716;BME280;33476;50.984;3.538;2023-01-16T07:05:35;98030.88;;;7.59;72.42
47716;BME280;33476;50.984;3.538;2023-01-16T07:08:01;98027.22;;;7.62;72.33
47716;BME280;33476;50.984;3.538;2023-01-16T07:10:26;98030.88;;;7.59;72.30
47716;BME280;33476;50.984;3.538;2023-01-16T07:12:52;98014.59;;;7.57;72.12
47716;BME280;33476;50.984;3.538;2023-01-16T07:15:19;98034.69;;;7.55;72.64
47716;BME280;33476;50.984;3.538;2023-01-16T07:18:03;98017.69;;;7.51;72.29
47716;BME280;33476;50.984;3.538;2023-01-16T07:20:53;98018.28;;;7.54;72.54
47716;BME280;33476;50.984;3.538;2023-01-16T07:23:39;98013.38;;;7.61;72.27
47716;BME280;33476;50.984;3.538;2023-01-16T07:26:07;98015.63;;;7.66;71.62
47716;BME280;33476;50.984;3.538;2023-01-16T07:28:34;98013.59;;;7.69;71.91
47716;BME280;33476;50.984;3.538;2023-01-16T07:31:01;98010.78;;;7.72;72.18
47716;BME280;33476;50.984;3.538;2023-01-16T07:33:31;98004.88;;;7.70;71.66
47716;BME280;33476;50.984;3.538;2023-01-16T07:35:56;98006.28;;;7.74;72.23
47716;BME280;33476;50.984;3.538;2023-01-16T07:38:22;98005.31;;;7.75;71.75
47716;BME280;33476;50.984;3.538;2023-01-16T07:40:47;97997.38;;;7.77;71.85
47716;BME280;33476;50.984;3.538;2023-01-16T07:43:12;98001.53;;;7.79;71.67
47716;BME280;33476;50.984;3.538;2023-01-16T07:45:38;98004.25;;;7.78;71.55
47716;BME280;33476;50.984;3.538;2023-01-16T07:48:03;97995.38;;;7.80;71.83
47716;BME280;33476;50.984;3.538;2023-01-16T07:50:29;97981.03;;;7.86;71.43
47716;BME280;33476;50.984;3.538;2023-01-16T07:52:54;97978.34;;;7.87;71.03
47716;BME280;33476;50.984;3.538;2023-01-16T07:55:20;97981.50;;;7.91;71.40
47716;BME280;33476;50.984;3.538;2023-01-16T07:57:45;97976.19;;;7.93;71.46
47716;BME280;33476;50.984;3.538;2023-01-16T08:00:11;97972.53;;;7.95;71.38
47716;BME280;33476;50.984;3.538;2023-01-16T08:02:41;97967.19;;;7.97;71.59
47716;BME280;33476;50.984;3.538;2023-01-16T08:05:07;97961.16;;;7.96;71.00
47716;BME280;33476;50.984;3.538;2023-01-16T08:07:32;97960.78;;;8.01;71.04
47716;BME280;33476;50.984;3.538;2023-01-16T08:09:58;97956.84;;;8.06;70.89
47716;BME280;33476;50.984;3.538;2023-01-16T08:12:23;97952.34;;;8.08;71.15
47716;BME280;33476;50.984;3.538;2023-01-16T08:14:48;97943.47;;;8.11;70.38
47716;BME280;33476;50.984;3.538;2023-01-16T08:17:14;97952.22;;;8.10;71.23
47716;BME280;33476;50.984;3.538;2023-01-16T08:19:40;97944.41;;;8.10;70.59
47716;BME280;33476;50.984;3.538;2023-01-16T08:22:05;97948.78;;;8.09;70.82
47716;BME280;33476;50.984;3.538;2023-01-16T08:24:30;97941.81;;;8.10;70.91
47716;BME280;33476;50.984;3.538;2023-01-16T08:26:56;97938.84;;;8.14;70.95
47716;BME280;33476;50.984;3.538;2023-01-16T08:29:22;97939.78;;;8.13;70.64
47716;BME280;33476;50.984;3.538;2023-01-16T08:31:48;97924.56;;;8.09;70.64
47716;BME280;33476;50.984;3.538;2023-01-16T08:34:14;97930.16;;;8.04;70.88
47716;BME280;33476;50.984;3.538;2023-01-16T08:36:39;97916.09;;;8.07;70.64
47716;BME280;33476;50.984;3.538;2023-01-16T08:39:04;97911.72;;;8.07;70.45
47716;BME280;33476;50.984;3.538;2023-01-16T08:41:30;97905.41;;;8.10;70.25
47716;BME280;33476;50.984;3.538;2023-01-16T08:44:14;97914.75;;;8.12;70.03
47716;BME280;33476;50.984;3.538;2023-01-16T08:47:04;97904.31;;;8.03;70.24
47716;BME280;33476;50.984;3.538;2023-01-16T08:49:49;97898.53;;;7.99;70.26
47716;BME280;33476;50.984;3.538;2023-01-16T08:52:44;97892.50;;;7.99;70.54
47716;BME280;33476;50.984;3.538;2023-01-16T08:55:10;97897.03;;;7.97;70.17
47716;BME280;33476;50.984;3.538;2023-01-16T08:57:35;97886.75;;;7.95;70.00
47716;BME280;33476;50.984;3.538;2023-01-16T09:00:01;97883.19;;;7.96;70.67
47716;BME280;33476;50.984;3.538;2023-01-16T09:02:27;97887.69;;;7.94;70.18
47716;BME280;33476;50.984;3.538;2023-01-16T09:04:53;97893.59;;;7.96;70.72
47716;BME280;33476;50.984;3.538;2023-01-16T09:07:20;97884.56;;;8.00;70.26
47716;BME280;33476;50.984;3.538;2023-01-16T09:09:45;97883.34;;;7.95;70.59
47716;BME280;33476;50.984;3.538;2023-01-16T09:12:12;97887.44;;;7.97;70.54
47716;BME280;33476;50.984;3.538;2023-01-16T09:14:57;97895.28;;;8.07;70.27
47716;BME280;33476;50.984;3.538;2023-01-16T09:17:23;97887.50;;;8.07;69.88
47716;BME280;33476;50.984;3.538;2023-01-16T09:19:50;97901.91;;;8.11;69.54
47716;BME280;33476;50.984;3.538;2023-01-16T09:22:16;97895.03;;;8.10;69.93
47716;BME280;33476;50.984;3.538;2023-01-16T09:24:41;97897.25;;;8.14;69.48
47716;BME280;33476;50.984;3.538;2023-01-16T09:27:07;97902.44;;;8.14;69.41
47716;BME280;33476;50.984;3.538;2023-01-16T09:29:32;97895.84;;;8.10;69.94
47716;BME280;33476;50.984;3.538;2023-01-16T09:31:58;97897.38;;;8.13;69.00
47716;BME280;33476;50.984;3.538;2023-01-16T09:34:24;97907.63;;;8.14;69.35
47716;BME280;33476;50.984;3.538;2023-01-16T09:36:50;97899.84;;;8.14;69.35
47716;BME280;33476;50.984;3.538;2023-01-16T09:39:16;97910.09;;;8.16;68.87
47716;BME280;33476;50.984;3.538;2023-01-16T09:45:00;97894.00;;;8.22;68.55
47716;BME280;33476;50.984;3.538;2023-01-16T09:47:28;97898.09;;;8.25;68.67
47716;BME280;33476;50.984;3.538;2023-01-16T09:52:26;97906.41;;;8.39;68.45
47716;BME280;33476;50.984;3.538;2023-01-16T09:55:34;97897.88;;;8.28;67.83
47716;BME280;33476;50.984;3.538;2023-01-16T09:58:22;97901.53;;;8.25;68.21
47716;BME280;33476;50.984;3.538;2023-01-16T10:01:14;97896.41;;;8.14;68.34
47716;BME280;33476;50.984;3.538;2023-01-16T10:03:40;97894.91;;;8.11;68.23
47716;BME280;33476;50.984;3.538;2023-01-16T10:06:33;97897.09;;;8.16;68.19
47716;BME280;33476;50.984;3.538;2023-01-16T10:09:23;97896.03;;;8.18;68.27
47716;BME280;33476;50.984;3.538;2023-01-16T10:12:07;97904.41;;;8.22;68.22
47716;BME280;33476;50.984;3.538;2023-01-16T10:14:56;97891.41;;;8.22;68.29
47716;BME280;33476;50.984;3.538;2023-01-16T10:17:43;97890.94;;;8.17;68.19
47716;BME280;33476;50.984;3.538;2023-01-16T10:20:33;97886.16;;;8.12;68.08
47716;BME280;33476;50.984;3.538;2023-01-16T10:28:49;97884.16;;;8.26;68.28
47716;BME280;33476;50.984;3.538;2023-01-16T10:31:25;97877.59;;;8.31;67.40
47716;BME280;33476;50.984;3.538;2023-01-16T10:33:59;97879.59;;;8.39;67.38
47716;BME280;33476;50.984;3.538;2023-01-16T10:36:39;97871.38;;;8.43;68.09
47716;BME280;33476;50.984;3.538;2023-01-16T10:39:09;97867.16;;;8.52;67.32
47716;BME280;33476;50.984;3.538;2023-01-16T10:41:41;97861.44;;;8.58;67.46
47716;BME280;33476;50.984;3.538;2023-01-16T10:44:37;97849.97;;;8.80;67.09
47716;BME280;33476;50.984;3.538;2023-01-16T10:47:26;97848.91;;;9.41;65.48
47716;BME280;33476;50.984;3.538;2023-01-16T10:50:11;97848.63;;;9.34;65.30
47716;BME280;33476;50.984;3.538;2023-01-16T10:52:37;97848.91;;;9.21;66.11
47716;BME280;33476;50.984;3.538;2023-01-16T10:55:03;97842.47;;;9.06;66.30
47716;BME280;33476;50.984;3.538;2023-01-16T10:57:29;97847.25;;;8.91;66.55
47716;BME280;33476;50.984;3.538;2023-01-16T10:59:59;97842.03;;;8.82;66.90
47716;BME280;33476;50.984;3.538;2023-01-16T11:02:32;97834.75;;;8.76;67.22
47716;BME280;33476;50.984;3.538;2023-01-16T11:04:58;97836.28;;;8.78;67.63
47716;BME280;33476;50.984;3.538;2023-01-16T11:07:27;97837.78;;;8.81;67.27
47716;BME280;33476;50.984;3.538;2023-01-16T11:09:53;97831.63;;;8.82;67.03
47716;BME280;33476;50.984;3.538;2023-01-16T11:12:28;97825.06;;;8.78;67.17
47716;BME280;33476;50.984;3.538;2023-01-16T11:15:21;97828.34;;;8.80;67.45
47716;BME280;33476;50.984;3.538;2023-01-16T11:20:53;97818.06;;;8.88;67.09
47716;BME280;33476;50.984;3.538;2023-01-16T11:23:21;97808.78;;;8.95;67.17
47716;BME280;33476;50.984;3.538;2023-01-16T11:25:49;97814.78;;;9.05;67.02
47716;BME280;33476;50.984;3.538;2023-01-16T11:28:22;97800.56;;;9.19;66.64
47716;BME280;33476;50.984;3.538;2023-01-16T11:30:51;97796.03;;;9.21;66.71
47716;BME280;33476;50.984;3.538;2023-01-16T11:33:22;97803.00;;;9.20;66.70
47716;BME280;33476;50.984;3.538;2023-01-16T11:35:54;97799.81;;;9.26;66.89
47716;BME280;33476;50.984;3.538;2023-01-16T11:38:23;97792.31;;;9.23;66.85
47716;BME280;33476;50.984;3.538;2023-01-16T11:40:50;97792.59;;;9.20;66.96
47716;BME280;33476;50.984;3.538;2023-01-16T11:43:21;97784.50;;;9.23;67.18
47716;BME280;33476;50.984;3.538;2023-01-16T11:46:30;97790.25;;;9.27;67.09
47716;BME280;33476;50.984;3.538;2023-01-16T11:48:59;97780.22;;;9.32;66.83
47716;BME280;33476;50.984;3.538;2023-01-16T11:51:36;97778.19;;;9.26;67.07
47716;BME280;33476;50.984;3.538;2023-01-16T11:54:04;97771.31;;;9.25;67.27
47716;BME280;33476;50.984;3.538;2023-01-16T12:05:08;97761.91;;;9.14;67.77
47716;BME280;33476;50.984;3.538;2023-01-16T12:10:39;97763.16;;;9.10;67.75
47716;BME280;33476;50.984;3.538;2023-01-16T12:13:09;97762.59;;;9.07;68.16
47716;BME280;33476;50.984;3.538;2023-01-16T12:19:27;97753.00;;;8.97;68.28
47716;BME280;33476;50.984;3.538;2023-01-16T12:31:00;97755.59;;;8.97;68.96
47716;BME280;33476;50.984;3.538;2023-01-16T12:40:43;97749.16;;;8.82;69.32
47716;BME280;33476;50.984;3.538;2023-01-16T12:43:30;97735.88;;;8.85;69.37
47716;BME280;33476;50.984;3.538;2023-01-16T12:46:01;97737.78;;;8.93;69.32
47716;BME280;33476;50.984;3.538;2023-01-16T12:59:38;97733.03;;;8.69;69.18
47716;BME280;33476;50.984;3.538;2023-01-16T13:05:00;97733.81;;;8.60;69.55
47716;BME280;33476;50.984;3.538;2023-01-16T13:07:31;97734.53;;;8.62;69.17
47716;BME280;33476;50.984;3.538;2023-01-16T13:10:13;97728.75;;;8.58;68.85
47716;BME280;33476;50.984;3.538;2023-01-16T13:13:02;97724.81;;;8.64;68.81
47716;BME280;33476;50.984;3.538;2023-01-16T13:15:52;97727.13;;;8.67;68.78
47716;BME280;33476;50.984;3.538;2023-01-16T13:18:24;97722.88;;;8.66;68.48
47716;BME280;33476;50.984;3.538;2023-01-16T13:20:55;97718.34;;;8.68;68.80
47716;BME280;33476;50.984;3.538;2023-01-16T13:23:28;97715.75;;;8.68;68.53
47716;BME280;33476;50.984;3.538;2023-01-16T13:25:58;97707.25;;;8.66;68.55
47716;BME280;33476;50.984;3.538;2023-01-16T13:31:05;97712.31;;;8.67;69.04
47716;BME280;33476;50.984;3.538;2023-01-16T13:33:35;97707.00;;;8.69;69.34
47716;BME280;33476;50.984;3.538;2023-01-16T13:36:25;97707.53;;;8.72;68.82
47716;BME280;33476;50.984;3.538;2023-01-16T13:39:13;97700.69;;;8.71;69.49
47716;BME280;33476;50.984;3.538;2023-01-16T13:41:43;97715.06;;;8.76;69.15
47716;BME280;33476;50.984;3.538;2023-01-16T13:44:24;97705.91;;;8.71;69.72
47716;BME280;33476;50.984;3.538;2023-01-16T13:47:13;97712.88;;;8.71;69.92
47716;BME280;33476;50.984;3.538;2023-01-16T13:49:41;97712.88;;;8.71;69.78
47716;BME280;33476;50.984;3.538;2023-01-16T13:52:18;97717.13;;;8.62;70.48
47716;BME280;33476;50.984;3.538;2023-01-16T13:54:47;97717.81;;;8.64;70.82
47716;BME280;33476;50.984;3.538;2023-01-16T13:57:21;97720.69;;;8.61;70.53
47716;BME280;33476;50.984;3.538;2023-01-16T13:59:49;97718.63;;;8.65;70.71
47716;BME280;33476;50.984;3.538;2023-01-16T14:07:52;97758.19;;;8.59;70.63
47716;BME280;33476;50.984;3.538;2023-01-16T14:11:04;97766.97;;;8.58;70.69
47716;BME280;33476;50.984;3.538;2023-01-16T14:13:42;97776.41;;;8.59;71.06
47716;BME280;33476;50.984;3.538;2023-01-16T14:21:23;97803.34;;;8.38;71.63
47716;BME280;33476;50.984;3.538;2023-01-16T14:23:53;97815.34;;;8.30;71.61
47716;BME280;33476;50.984;3.538;2023-01-16T14:29:21;97834.59;;;8.27;71.29
47716;BME280;33476;50.984;3.538;2023-01-16T14:34:27;97839.56;;;8.30;71.22
47716;BME280;33476;50.984;3.538;2023-01-16T14:36:58;97840.13;;;8.34;71.07
47716;BME280;33476;50.984;3.538;2023-01-16T14:39:26;97849.88;;;8.41;70.67
47716;BME280;33476;50.984;3.538;2023-01-16T14:41:55;97869.53;;;8.34;70.99
47716;BME280;33476;50.984;3.538;2023-01-16T14:45:23;97879.09;;;8.24;70.93
47716;BME280;33476;50.984;3.538;2023-01-16T14:50:55;97899.34;;;8.21;70.63
47716;BME280;33476;50.984;3.538;2023-01-16T14:53:42;97908.50;;;8.25;70.89
47716;BME280;33476;50.984;3.538;2023-01-16T15:04:12;97945.09;;;8.33;70.44
47716;BME280;33476;50.984;3.538;2023-01-16T15:06:42;97951.25;;;8.32;70.67
47716;BME280;33476;50.984;3.538;2023-01-16T15:09:14;97971.59;;;8.27;70.35
47716;BME280;33476;50.984;3.538;2023-01-16T15:11:51;97984.03;;;8.23;70.89
47716;BME280;33476;50.984;3.538;2023-01-16T15:14:21;97978.47;;;8.28;70.40
47716;BME280;33476;50.984;3.538;2023-01-16T15:19:58;98006.34;;;8.26;70.66
47716;BME280;33476;50.984;3.538;2023-01-16T15:22:45;98021.59;;;8.30;70.04
47716;BME280;33476;50.984;3.538;2023-01-16T15:25:26;98023.31;;;8.20;70.93
47716;BME280;33476;50.984;3.538;2023-01-16T15:28:23;98035.72;;;8.16;70.61
47716;BME280;33476;50.984;3.538;2023-01-16T15:30:55;98040.69;;;8.20;70.11
47716;BME280;33476;50.984;3.538;2023-01-16T15:33:30;98051.44;;;8.15;70.03
47716;BME280;33476;50.984;3.538;2023-01-16T15:36:18;98044.28;;;8.07;70.50
47716;BME280;33476;50.984;3.538;2023-01-16T15:38:52;98066.97;;;8.05;70.46